Terminal Aerodrome Forecast
Issued by NWS

Home | Current Version | Previous Version | Text Only | Print | Product List | Glossary On
Versions: 1 2 3 4 5 6 7 8 9 10 11 12 13 14 15 16 17 18
000
FTUS43 KEAX 262323
TAFSTJ
TAF
KSTJ 262323Z 2700/2724 03006KT P6SM VCSH OVC020
     FM270100 02006KT 4SM -SHRA BR OVC015
     FM270800 01007KT 2SM -SHRA BR OVC007
     FM271600 36009KT P6SM OVC018
     FM272300 34008KT P6SM SCT025=

USA.gov is the U.S. government's official web portal to all federal, state and local government web resources and services.